createdAt,value
2022-08-03T00:01:53.239Z,1.90
2022-08-03T00:04:20.183Z,2.00
2022-08-03T00:06:47.041Z,2.17
2022-08-03T00:09:13.880Z,2.50
2022-08-03T00:11:40.710Z,2.10
2022-08-03T00:14:08.377Z,2.30
2022-08-03T00:16:35.333Z,2.40
2022-08-03T00:19:03.276Z,2.03
2022-08-03T00:21:30.186Z,2.20
2022-08-03T00:23:57.045Z,2.03
2022-08-03T00:26:23.929Z,2.13
2022-08-03T00:28:51.433Z,2.10
2022-08-03T00:31:27.742Z,2.00
2022-08-03T00:34:06.135Z,2.10
2022-08-03T00:36:33.795Z,2.23
2022-08-03T00:39:00.622Z,1.80
2022-08-03T00:41:27.597Z,1.70
2022-08-03T00:43:54.433Z,1.60
2022-08-03T00:46:22.454Z,1.90
2022-08-03T00:48:53.319Z,1.63
2022-08-03T00:51:23.311Z,1.47
2022-08-03T00:53:50.996Z,1.57
2022-08-03T00:56:18.401Z,1.53
2022-08-03T00:58:46.848Z,1.40
2022-08-03T01:01:14.317Z,1.57
2022-08-03T01:03:41.586Z,1.83
2022-08-03T01:06:38.777Z,1.97
2022-08-03T01:10:01.236Z,2.37
2022-08-03T01:14:01.202Z,1.77
2022-08-03T01:16:52.819Z,1.90
2022-08-03T01:19:45.849Z,2.03
2022-08-03T01:22:50.063Z,2.10
2022-08-03T01:25:54.577Z,1.90
2022-08-03T01:28:54.632Z,2.30
2022-08-03T01:31:28.574Z,2.10
2022-08-03T01:34:03.224Z,2.13
2022-08-03T01:36:37.421Z,2.10
2022-08-03T01:39:11.367Z,1.70
2022-08-03T01:41:49.559Z,2.20
2022-08-03T01:44:29.459Z,2.10
2022-08-03T01:47:00.810Z,2.20
2022-08-03T01:49:30.390Z,2.00
2022-08-03T01:52:04.542Z,1.60
2022-08-03T01:54:42.214Z,2.13
2022-08-03T01:57:11.050Z,2.03
2022-08-03T01:59:40.393Z,2.07
2022-08-03T02:02:27.683Z,2.00
2022-08-03T02:04:57.656Z,1.83
2022-08-03T02:07:27.081Z,1.83
2022-08-03T02:09:55.697Z,2.30
2022-08-03T02:12:25.703Z,2.30
2022-08-03T02:14:54.154Z,2.50
2022-08-03T02:17:38.974Z,2.67
2022-08-03T02:20:11.833Z,2.27
2022-08-03T02:22:43.218Z,2.60
2022-08-03T02:25:13.465Z,2.60
2022-08-03T02:27:48.538Z,2.90
2022-08-03T02:30:15.951Z,2.70
2022-08-03T02:32:52.109Z,2.30
2022-08-03T02:35:23.318Z,2.53
2022-08-03T02:38:03.357Z,2.90
2022-08-03T02:40:32.289Z,2.67
2022-08-03T02:43:12.109Z,2.50
2022-08-03T02:45:45.642Z,2.90
2022-08-03T02:48:17.776Z,2.60
2022-08-03T02:50:45.946Z,2.27
2022-08-03T02:53:14.105Z,2.50
2022-08-03T02:55:43.287Z,2.50
2022-08-03T02:58:14.349Z,2.40
2022-08-03T03:00:44.437Z,2.20
2022-08-03T03:03:11.780Z,1.97
2022-08-03T03:05:54.774Z,2.10
2022-08-03T03:08:28.222Z,2.30
2022-08-03T03:11:01.018Z,2.20
2022-08-03T03:13:30.500Z,2.03
2022-08-03T03:16:04.133Z,2.80
2022-08-03T03:18:35.375Z,2.33
2022-08-03T03:21:04.157Z,2.40
2022-08-03T03:23:36.026Z,1.70
2022-08-03T03:26:04.095Z,1.90
2022-08-03T03:28:32.508Z,1.80
2022-08-03T03:31:00.740Z,2.00
2022-08-03T03:33:28.630Z,2.97
2022-08-03T03:35:56.166Z,2.70
2022-08-03T03:38:22.994Z,2.40
2022-08-03T03:40:50.152Z,2.57
2022-08-03T03:43:18.568Z,2.37
2022-08-03T03:45:47.601Z,2.90
2022-08-03T03:48:15.329Z,2.67
2022-08-03T03:50:43.925Z,2.47
2022-08-03T03:53:12.943Z,2.13
2022-08-03T03:55:59.333Z,2.53
2022-08-03T03:58:27.783Z,2.63
2022-08-03T04:00:54.653Z,2.70
2022-08-03T04:03:21.706Z,2.63
2022-08-03T04:06:07.307Z,2.70
2022-08-03T04:08:52.655Z,2.50
2022-08-03T04:11:52.087Z,2.87
2022-08-03T04:14:30.511Z,1.90
2022-08-03T04:17:03.563Z,1.73
2022-08-03T04:19:43.768Z,1.60
2022-08-03T04:22:12.662Z,1.90
2022-08-03T04:24:50.018Z,2.50
2022-08-03T04:27:31.739Z,2.30
2022-08-03T04:30:02.860Z,2.43
2022-08-03T04:32:31.281Z,2.80
2022-08-03T04:34:58.386Z,2.50
2022-08-03T04:37:39.822Z,2.57
2022-08-03T04:40:11.413Z,2.43
2022-08-03T04:42:39.516Z,2.40
2022-08-03T04:45:08.213Z,2.40
2022-08-03T04:47:35.881Z,2.60
2022-08-03T04:50:11.909Z,2.60
2022-08-03T04:52:40.024Z,2.47
2022-08-03T04:55:07.453Z,2.27
2022-08-03T04:57:34.269Z,2.20
2022-08-03T05:00:03.630Z,2.37
2022-08-03T05:02:31.392Z,2.30
2022-08-03T05:04:59.981Z,2.30
2022-08-03T05:07:35.584Z,2.50
2022-08-03T05:10:05.960Z,2.77
2022-08-03T05:12:42.567Z,2.50
2022-08-03T05:15:10.295Z,2.80
2022-08-03T05:17:37.108Z,2.70
2022-08-03T05:20:05.481Z,2.57
2022-08-03T05:22:32.500Z,2.47
2022-08-03T05:25:01.136Z,2.80
2022-08-03T05:27:27.984Z,2.70
2022-08-03T05:29:54.853Z,2.60
2022-08-03T05:32:22.198Z,2.80
2022-08-03T05:34:49.228Z,2.30
2022-08-03T05:37:16.098Z,2.67
2022-08-03T05:39:43.377Z,2.80
2022-08-03T05:42:10.641Z,2.40
2022-08-03T05:44:38.759Z,2.50
2022-08-03T05:47:06.177Z,2.50
2022-08-03T05:49:33.149Z,2.90
2022-08-03T05:52:12.646Z,2.80
2022-08-03T05:54:57.432Z,2.50
2022-08-03T05:57:25.794Z,2.27
2022-08-03T05:59:54.772Z,2.57
2022-08-03T06:02:26.509Z,2.60
2022-08-03T06:04:53.607Z,2.60
2022-08-03T06:07:20.424Z,3.10
2022-08-03T06:10:34.435Z,2.60
2022-08-03T06:12:36.787Z,2.90
2022-08-03T06:15:07.841Z,3.07
2022-08-03T06:17:48.961Z,2.90
2022-08-03T06:20:20.559Z,2.73
2022-08-03T06:22:51.403Z,3.10
2022-08-03T06:25:27.553Z,3.07
2022-08-03T06:27:54.408Z,2.80
2022-08-03T06:30:21.612Z,2.87
2022-08-03T06:32:52.152Z,2.73
2022-08-03T06:35:20.122Z,2.77
2022-08-03T06:37:49.630Z,2.83
2022-08-03T06:40:29.634Z,2.60
2022-08-03T06:42:57.964Z,2.67
2022-08-03T06:45:25.345Z,2.93
2022-08-03T06:48:07.062Z,3.03
2022-08-03T06:50:36.709Z,2.50
2022-08-03T06:53:05.325Z,2.67
2022-08-03T06:55:33.118Z,2.70
2022-08-03T06:58:03.190Z,2.60
2022-08-03T07:00:30.966Z,2.47
2022-08-03T07:02:58.588Z,2.80
2022-08-03T07:05:26.176Z,2.87
2022-08-03T07:07:57.619Z,2.43
2022-08-03T07:10:24.898Z,2.40
2022-08-03T07:12:56.006Z,2.60
2022-08-03T07:15:54.916Z,2.67
2022-08-03T07:18:11.840Z,2.63
2022-08-03T07:20:38.733Z,2.20
2022-08-03T07:23:05.605Z,2.13
2022-08-03T07:25:32.533Z,3.20
2022-08-03T07:27:59.663Z,2.20
2022-08-03T07:30:26.542Z,2.20
2022-08-03T07:32:53.441Z,2.23
2022-08-03T07:35:25.069Z,2.00
2022-08-03T07:37:54.750Z,2.00
2022-08-03T07:40:22.852Z,2.20
2022-08-03T07:42:52.275Z,2.10
2022-08-03T07:45:23.311Z,2.10
2022-08-03T07:47:53.558Z,2.50
2022-08-03T07:50:21.809Z,2.10
2022-08-03T07:52:49.780Z,2.10
2022-08-03T07:55:21.204Z,1.87
2022-08-03T07:58:00.275Z,1.77
2022-08-03T08:00:27.251Z,1.80
2022-08-03T08:02:54.227Z,1.70
2022-08-03T08:05:21.354Z,1.98
2022-08-03T08:07:50.994Z,1.80
2022-08-03T08:10:18.779Z,1.80
2022-08-03T08:12:45.788Z,1.88
2022-08-03T08:15:12.837Z,1.80
2022-08-03T08:17:50.045Z,1.80
2022-08-03T08:20:30.777Z,1.80
2022-08-03T08:23:19.963Z,1.77
2022-08-03T08:25:52.908Z,1.98
2022-08-03T08:28:32.151Z,1.60
2022-08-03T08:31:00.706Z,1.88
2022-08-03T08:33:37.350Z,2.20
2022-08-03T08:36:14.815Z,1.30
2022-08-03T08:38:44.370Z,1.50
2022-08-03T08:41:13.422Z,1.17
2022-08-03T08:43:41.805Z,1.50
2022-08-03T08:46:12.998Z,1.48
2022-08-03T08:48:51.595Z,1.50
2022-08-03T08:51:21.350Z,1.60
2022-08-03T08:53:53.648Z,1.70
2022-08-03T08:56:25.334Z,1.45
2022-08-03T08:58:57.965Z,1.40
2022-08-03T09:01:25.402Z,1.67
2022-08-03T09:03:54.167Z,1.70
2022-08-03T09:06:22.762Z,1.40
2022-08-03T09:08:49.997Z,1.73
2022-08-03T09:11:21.408Z,1.60
2022-08-03T09:14:10.284Z,1.40
2022-08-03T09:17:02.504Z,1.40
2022-08-03T09:19:31.463Z,1.52
2022-08-03T09:22:16.630Z,1.60
2022-08-03T09:25:23.878Z,1.63
2022-08-03T09:27:51.644Z,1.70
2022-08-03T09:30:33.767Z,1.65
2022-08-03T09:33:08.543Z,1.38
2022-08-03T09:35:57.391Z,1.75
2022-08-03T09:38:28.124Z,1.52
2022-08-03T09:40:59.936Z,1.25
2022-08-03T09:43:28.588Z,1.55
2022-08-03T09:46:07.266Z,1.38
2022-08-03T09:48:37.354Z,1.50
2022-08-03T09:51:14.268Z,1.40
2022-08-03T09:53:58.819Z,1.70
2022-08-03T09:56:45.998Z,1.42
2022-08-03T09:59:23.741Z,1.60
2022-08-03T10:01:50.681Z,1.30
2022-08-03T10:04:17.690Z,1.55
2022-08-03T10:07:12.551Z,1.40
2022-08-03T10:09:57.074Z,1.40
2022-08-03T10:12:25.329Z,1.30
2022-08-03T10:14:53.308Z,1.50
2022-08-03T10:17:22.222Z,1.38
2022-08-03T10:19:50.474Z,1.45
2022-08-03T10:22:22.883Z,1.60
2022-08-03T10:25:09.721Z,1.52
2022-08-03T10:27:43.017Z,1.50
2022-08-03T10:30:11.982Z,1.25
2022-08-03T10:32:46.213Z,1.10
2022-08-03T10:35:21.654Z,1.23
2022-08-03T10:38:00.632Z,1.10
2022-08-03T10:43:23.086Z,1.23
2022-08-03T10:45:51.886Z,1.23
2022-08-03T10:48:19.846Z,1.10
2022-08-03T10:50:49.139Z,1.20
2022-08-03T10:53:18.607Z,1.38
2022-08-03T10:56:05.871Z,1.40
2022-08-03T10:58:53.311Z,1.58
2022-08-03T11:01:59.025Z,1.25
2022-08-03T11:04:29.518Z,1.23
2022-08-03T11:07:24.833Z,1.50
2022-08-03T11:09:55.321Z,1.13
2022-08-03T11:12:32.252Z,1.60
2022-08-03T11:15:07.150Z,1.20
2022-08-03T11:17:46.518Z,1.10
2022-08-03T11:20:51.041Z,1.20
2022-08-03T11:24:05.253Z,1.20
2022-08-03T11:26:29.214Z,1.30
2022-08-03T11:29:31.708Z,1.00
2022-08-03T11:31:58.872Z,1.05
2022-08-03T11:34:26.548Z,1.00
2022-08-03T11:37:26.361Z,1.30
2022-08-03T11:39:57.191Z,1.08
2022-08-03T11:42:24.261Z,1.00
2022-08-03T11:44:53.248Z,0.93
2022-08-03T11:47:26.828Z,0.90
2022-08-03T11:50:00.584Z,0.98
2022-08-03T11:52:34.753Z,1.17
2022-08-03T11:55:02.330Z,0.88
2022-08-03T11:59:17.833Z,0.80
2022-08-03T12:00:33.205Z,0.90
2022-08-03T12:03:08.018Z,0.90
2022-08-03T12:05:51.129Z,0.70
2022-08-03T12:08:28.017Z,1.00
2022-08-03T12:10:57.558Z,0.65
2022-08-03T12:14:44.169Z,0.95
2022-08-03T12:16:21.516Z,0.73
2022-08-03T12:19:02.847Z,0.85
2022-08-03T12:21:31.131Z,0.60
2022-08-03T12:24:03.942Z,0.90
2022-08-03T12:26:59.032Z,0.80
2022-08-03T12:29:27.380Z,0.85
2022-08-03T12:31:56.079Z,1.10
2022-08-03T12:34:23.226Z,0.75
2022-08-03T12:36:53.217Z,0.90
2022-08-03T12:39:25.585Z,0.90
2022-08-03T12:41:57.391Z,0.90
2022-08-03T12:44:35.927Z,1.05
2022-08-03T12:47:06.821Z,1.40
2022-08-03T12:49:51.738Z,0.82
2022-08-03T12:52:22.193Z,1.17
2022-08-03T12:55:00.663Z,0.90
2022-08-03T12:57:41.924Z,1.10
2022-08-03T13:00:21.291Z,0.60
2022-08-03T13:05:54.485Z,1.02
2022-08-03T13:08:25.074Z,0.90
2022-08-03T13:10:52.155Z,0.90
2022-08-03T13:13:20.753Z,1.02
2022-08-03T13:15:48.351Z,1.05
2022-08-03T13:18:17.353Z,1.00
2022-08-03T13:20:44.637Z,0.90
2022-08-03T13:23:21.907Z,0.88
2022-08-03T13:25:55.132Z,0.80
2022-08-03T13:28:23.176Z,1.10
2022-08-03T13:30:50.182Z,0.90
2022-08-03T13:33:17.510Z,1.10
2022-08-03T13:35:44.415Z,1.13
2022-08-03T13:38:11.370Z,0.82
2022-08-03T13:40:41.730Z,0.90
2022-08-03T13:43:09.025Z,1.15
2022-08-03T13:45:36.183Z,1.10
2022-08-03T13:48:03.067Z,1.10
2022-08-03T13:50:31.296Z,1.20
2022-08-03T13:52:58.650Z,1.10
2022-08-03T13:55:25.570Z,0.80
2022-08-03T13:58:03.078Z,0.90
2022-08-03T14:00:34.061Z,1.08
2022-08-03T14:03:09.088Z,0.93
2022-08-03T14:05:40.215Z,1.10
2022-08-03T14:08:07.842Z,1.10
2022-08-03T14:10:41.120Z,1.23
2022-08-03T14:13:08.809Z,1.13
2022-08-03T14:15:38.249Z,1.10
2022-08-03T14:18:13.020Z,1.10
2022-08-03T14:20:47.757Z,1.10
2022-08-03T14:23:17.658Z,0.90
2022-08-03T14:25:51.722Z,1.10
2022-08-03T14:28:22.934Z,0.90
2022-08-03T14:30:51.710Z,1.10
2022-08-03T14:33:18.654Z,0.98
2022-08-03T14:35:45.494Z,1.33
2022-08-03T14:38:12.350Z,1.10
2022-08-03T14:40:39.468Z,0.90
2022-08-03T14:43:06.413Z,1.23
2022-08-03T14:45:34.291Z,0.93
2022-08-03T14:50:10.491Z,0.90
2022-08-03T14:50:51.739Z,1.10
2022-08-03T14:53:19.711Z,1.00
2022-08-03T14:55:49.941Z,1.10
2022-08-03T14:58:21.426Z,1.15
2022-08-03T15:00:51.228Z,1.10
2022-08-03T15:03:25.396Z,1.15
2022-08-03T15:05:54.745Z,0.95
2022-08-03T15:08:23.518Z,1.30
2022-08-03T15:10:51.559Z,1.20
2022-08-03T15:13:19.903Z,1.20
2022-08-03T15:15:47.858Z,1.10
2022-08-03T15:18:14.761Z,0.98
2022-08-03T15:20:46.351Z,0.90
2022-08-03T15:23:15.575Z,1.27
2022-08-03T15:26:04.211Z,1.17
2022-08-03T15:28:31.903Z,1.20
2022-08-03T15:30:58.870Z,1.10
2022-08-03T15:33:25.696Z,1.10
2022-08-03T15:35:53.318Z,1.05
2022-08-03T15:38:25.734Z,1.20
2022-08-03T15:40:56.033Z,1.13
2022-08-03T15:43:23.890Z,0.95
2022-08-03T15:46:27.761Z,1.10
2022-08-03T15:48:45.632Z,1.05
2022-08-03T15:51:12.547Z,0.90
2022-08-03T15:53:39.445Z,0.98
2022-08-03T15:56:12.106Z,1.10
2022-08-03T15:59:09.397Z,0.98
2022-08-03T16:01:28.137Z,1.35
2022-08-03T16:03:55.011Z,1.30
2022-08-03T16:06:35.032Z,1.15
2022-08-03T16:09:23.385Z,1.10
2022-08-03T16:11:53.585Z,1.20
2022-08-03T16:14:32.671Z,0.80
2022-08-03T16:17:05.214Z,0.95
2022-08-03T16:19:32.153Z,1.00
2022-08-03T16:21:59.170Z,0.85
2022-08-03T16:24:28.035Z,1.00
2022-08-03T16:26:56.020Z,1.00
2022-08-03T16:29:23.807Z,1.00
2022-08-03T16:31:51.850Z,1.10
2022-08-03T16:34:19.307Z,1.00
2022-08-03T16:36:46.117Z,0.98
2022-08-03T16:39:13.023Z,1.13
2022-08-03T16:41:54.393Z,1.02
2022-08-03T16:44:28.636Z,1.00
2022-08-03T16:46:55.467Z,0.80
2022-08-03T16:49:54.593Z,1.00
2022-08-03T16:52:09.202Z,1.02
2022-08-03T16:54:39.814Z,0.95
2022-08-03T16:57:07.529Z,1.20
2022-08-03T16:59:36.731Z,1.15
2022-08-03T17:02:12.706Z,1.33
2022-08-03T17:04:40.250Z,1.10
2022-08-03T17:07:08.919Z,1.05
2022-08-03T17:09:39.051Z,1.10
2022-08-03T17:12:07.536Z,1.00
2022-08-03T17:14:39.755Z,1.00
2022-08-03T17:17:17.862Z,1.13
2022-08-03T17:19:47.478Z,0.85
2022-08-03T17:22:28.646Z,0.90
2022-08-03T17:24:58.750Z,1.10
2022-08-03T17:28:49.456Z,1.05
2022-08-03T17:30:17.527Z,1.13
2022-08-03T17:32:57.063Z,1.20
2022-08-03T17:35:34.333Z,1.00
2022-08-03T17:38:07.734Z,1.10
2022-08-03T17:40:38.035Z,0.93
2022-08-03T17:44:14.509Z,1.00
2022-08-03T17:45:55.039Z,1.15
2022-08-03T17:48:24.954Z,1.10
2022-08-03T17:51:07.781Z,0.98
2022-08-03T17:53:53.935Z,1.00
2022-08-03T17:56:45.668Z,0.90
2022-08-03T17:59:51.521Z,1.00
2022-08-03T18:02:57.133Z,0.90
2022-08-03T18:06:10.356Z,1.25
2022-08-03T18:08:24.797Z,0.90
2022-08-03T18:11:03.338Z,1.10
2022-08-03T18:13:57.799Z,1.27
2022-08-03T18:16:34.017Z,1.20
2022-08-03T18:19:09.227Z,1.20
2022-08-03T18:22:03.231Z,1.20
2022-08-03T18:24:29.095Z,1.15
2022-08-03T18:26:59.247Z,1.20
2022-08-03T18:29:27.629Z,1.00
2022-08-03T18:32:03.745Z,1.05
2022-08-03T18:34:34.480Z,1.33
2022-08-03T18:37:07.234Z,1.30
2022-08-03T18:39:49.495Z,1.20
2022-08-03T18:42:19.423Z,1.27
2022-08-03T18:44:52.945Z,1.27
2022-08-03T18:47:50.800Z,1.37
2022-08-03T18:50:50.172Z,1.57
2022-08-03T18:54:02.992Z,1.40
2022-08-03T18:56:29.840Z,1.30
2022-08-03T18:59:11.479Z,1.27
2022-08-03T19:02:00.852Z,1.30
2022-08-03T19:05:03.731Z,1.37
2022-08-03T19:07:36.091Z,1.30
2022-08-03T19:10:10.159Z,1.20
2022-08-03T19:12:54.363Z,1.40
2022-08-03T19:15:36.953Z,1.27
2022-08-03T19:18:11.807Z,1.20
2022-08-03T19:20:46.715Z,1.10
2022-08-03T19:23:14.338Z,1.20
2022-08-03T19:25:41.435Z,1.30
2022-08-03T19:28:09.371Z,1.20
2022-08-03T19:30:53.290Z,1.23
2022-08-03T19:33:21.530Z,1.50
2022-08-03T19:35:54.891Z,1.50
2022-08-03T19:38:28.608Z,1.20
2022-08-03T19:41:03.170Z,1.23
2022-08-03T19:43:52.850Z,1.60
2022-08-03T19:46:30.913Z,1.37
2022-08-03T19:49:15.243Z,1.20
2022-08-03T19:52:00.634Z,1.50
2022-08-03T19:54:39.656Z,1.30
2022-08-03T19:57:24.787Z,1.50
2022-08-03T19:59:55.062Z,1.50
2022-08-03T20:02:27.268Z,1.60
2022-08-03T20:04:57.032Z,1.40
2022-08-03T20:07:25.970Z,1.70
2022-08-03T20:09:56.584Z,1.40
2022-08-03T20:12:27.653Z,1.47
2022-08-03T20:14:57.812Z,1.33
2022-08-03T20:17:54.127Z,1.57
2022-08-03T20:20:13.010Z,1.30
2022-08-03T20:22:45.551Z,1.30
2022-08-03T20:25:20.642Z,1.77
2022-08-03T20:28:07.272Z,1.70
2022-08-03T20:30:39.458Z,1.83
2022-08-03T20:33:09.483Z,1.80
2022-08-03T20:35:36.378Z,1.47
2022-08-03T20:38:03.712Z,1.40
2022-08-03T20:40:30.544Z,1.67
2022-08-03T20:42:57.690Z,1.80
2022-08-03T20:45:58.553Z,1.60
2022-08-03T20:48:11.486Z,1.60
2022-08-03T20:50:44.045Z,1.67
2022-08-03T20:53:12.503Z,1.53
2022-08-03T20:55:47.499Z,1.60
2022-08-03T20:58:27.210Z,1.30
2022-08-03T21:00:56.731Z,1.30
2022-08-03T21:03:23.674Z,1.60
2022-08-03T21:05:53.542Z,1.80
2022-08-03T21:08:46.867Z,1.70
2022-08-03T21:11:18.828Z,1.70
2022-08-03T21:14:09.164Z,1.50
2022-08-03T21:16:40.635Z,1.60
2022-08-03T21:19:07.972Z,1.57
2022-08-03T21:21:39.055Z,1.80
2022-08-03T21:24:08.196Z,1.80
2022-08-03T21:26:38.939Z,1.80
2022-08-03T21:29:06.246Z,1.63
2022-08-03T21:31:33.117Z,1.53
2022-08-03T21:34:05.321Z,1.40
2022-08-03T21:36:35.279Z,1.90
2022-08-03T21:39:06.925Z,1.67
2022-08-03T21:41:34.475Z,1.67
2022-08-03T21:44:03.215Z,2.07
2022-08-03T21:46:37.990Z,1.90
2022-08-03T21:50:06.082Z,1.60
2022-08-03T21:51:59.493Z,1.60
2022-08-03T21:54:39.612Z,1.70
2022-08-03T21:57:24.186Z,1.67
2022-08-03T21:59:57.254Z,1.93
2022-08-03T22:02:31.407Z,1.50
2022-08-03T22:04:59.335Z,1.40
2022-08-03T22:07:28.807Z,1.67
2022-08-03T22:09:57.382Z,2.10
2022-08-03T22:12:28.651Z,1.70
2022-08-03T22:15:00.501Z,1.73
2022-08-03T22:17:54.825Z,1.70
2022-08-03T22:20:21.925Z,1.60
2022-08-03T22:22:56.095Z,1.77
2022-08-03T22:25:29.037Z,1.60
2022-08-03T22:27:58.463Z,1.60
2022-08-03T22:30:25.888Z,1.87
2022-08-03T22:32:56.072Z,1.90
2022-08-03T22:35:26.027Z,2.10
2022-08-03T22:37:58.761Z,1.90
2022-08-03T22:40:27.652Z,2.10
2022-08-03T22:42:54.967Z,1.50
2022-08-03T22:46:07.386Z,1.97
2022-08-03T22:48:08.743Z,1.90
2022-08-03T22:50:35.860Z,1.60
2022-08-03T22:53:02.862Z,1.97
2022-08-03T22:55:31.254Z,2.03
2022-08-03T22:57:58.396Z,1.57
2022-08-03T23:00:25.421Z,1.97
2022-08-03T23:02:54.638Z,2.30
2022-08-03T23:06:00.693Z,1.60
2022-08-03T23:08:15.310Z,1.80
2022-08-03T23:10:47.207Z,1.50
2022-08-03T23:13:19.856Z,2.00
2022-08-03T23:15:56.187Z,1.80
2022-08-03T23:18:25.474Z,1.80
2022-08-03T23:20:53.688Z,1.70
2022-08-03T23:23:23.313Z,2.07
2022-08-03T23:25:51.770Z,1.87
2022-08-03T23:28:18.951Z,1.83
2022-08-03T23:30:47.422Z,1.70
2022-08-03T23:33:16.729Z,1.60
2022-08-03T23:36:27.885Z,1.90
2022-08-03T23:38:44.871Z,1.77
2022-08-03T23:41:13.605Z,1.83
2022-08-03T23:43:51.462Z,1.80
2022-08-03T23:46:21.985Z,2.00
2022-08-03T23:48:49.977Z,1.70
2022-08-03T23:52:02.836Z,1.97
2022-08-03T23:54:53.568Z,2.03
2022-08-03T23:57:32.783Z,1.70
